createdAt,value
2023-01-18T00:00:50.957Z,80.53
2023-01-18T00:03:03.719Z,80.01
2023-01-18T00:05:15.362Z,79.95
2023-01-18T00:07:27.605Z,79.61
2023-01-18T00:09:39.296Z,79.77
2023-01-18T00:11:51.594Z,79.96
2023-01-18T00:14:03.903Z,79.91
2023-01-18T00:16:21.411Z,80.42
2023-01-18T00:18:36.176Z,80.00
2023-01-18T00:20:47.874Z,79.83
2023-01-18T00:23:01.908Z,80.46
2023-01-18T00:25:13.597Z,80.41
2023-01-18T00:27:25.386Z,80.38
2023-01-18T00:29:37.791Z,80.45
2023-01-18T00:31:49.525Z,80.68
2023-01-18T00:34:01.805Z,80.08
2023-01-18T00:36:16.595Z,80.19
2023-01-18T00:38:29.359Z,80.57
2023-01-18T00:40:40.847Z,80.56
2023-01-18T00:43:11.866Z,80.61
2023-01-18T00:45:24.103Z,80.75
2023-01-18T00:47:36.277Z,80.64
2023-01-18T00:49:47.863Z,80.44
2023-01-18T00:51:59.549Z,80.75
2023-01-18T00:54:11.561Z,80.77
2023-01-18T00:56:23.850Z,80.46
2023-01-18T00:58:37.674Z,80.45
2023-01-18T01:00:52.982Z,80.33
2023-01-18T01:03:05.261Z,79.93
2023-01-18T01:05:45.104Z,80.33
2023-01-18T01:07:57.212Z,80.00
2023-01-18T01:10:10.326Z,80.07
2023-01-18T01:12:40.857Z,79.62
2023-01-18T01:15:11.727Z,79.71
2023-01-18T01:17:42.942Z,79.81
2023-01-18T01:20:13.366Z,80.29
2023-01-18T01:22:44.406Z,79.83
2023-01-18T01:25:15.241Z,79.79
2023-01-18T01:27:27.449Z,79.61
2023-01-18T01:29:39.233Z,79.88
2023-01-18T01:31:51.020Z,79.90
2023-01-18T01:34:02.609Z,79.76
2023-01-18T01:36:25.964Z,79.61
2023-01-18T01:38:37.858Z,79.83
2023-01-18T01:40:58.145Z,79.67
2023-01-18T01:43:13.542Z,80.15
2023-01-18T01:45:28.589Z,79.65
2023-01-18T01:47:44.577Z,79.69
2023-01-18T01:50:02.222Z,79.68
2023-01-18T01:52:19.933Z,79.62
2023-01-18T01:54:37.481Z,79.77
2023-01-18T01:56:53.852Z,79.82
2023-01-18T01:59:06.462Z,79.32
2023-01-18T02:01:18.430Z,79.47
2023-01-18T02:03:31.476Z,79.38
2023-01-18T02:05:46.877Z,79.69
2023-01-18T02:08:01.221Z,79.41
2023-01-18T02:10:12.887Z,79.71
2023-01-18T02:12:25.939Z,79.55
2023-01-18T02:14:38.314Z,79.95
2023-01-18T02:17:15.403Z,79.08
2023-01-18T02:20:07.031Z,79.45
2023-01-18T02:22:28.125Z,79.32
2023-01-18T02:24:52.306Z,78.91
2023-01-18T02:27:15.155Z,79.62
2023-01-18T02:29:48.552Z,79.42
2023-01-18T02:32:06.635Z,79.23
2023-01-18T02:34:49.103Z,79.62
2023-01-18T02:37:21.065Z,79.47
2023-01-18T02:39:50.699Z,79.73
2023-01-18T02:42:44.034Z,79.72
2023-01-18T02:45:15.796Z,79.57
2023-01-18T02:47:29.119Z,79.54
2023-01-18T02:49:40.805Z,79.63
2023-01-18T02:52:05.404Z,79.48
2023-01-18T02:54:24.670Z,79.90
2023-01-18T02:56:46.177Z,79.39
2023-01-18T02:59:16.301Z,79.48
2023-01-18T03:01:34.821Z,79.84
2023-01-18T03:03:48.582Z,79.52
2023-01-18T03:06:02.731Z,79.88
2023-01-18T03:08:21.827Z,79.53
2023-01-18T03:10:44.126Z,80.03
2023-01-18T03:13:00.793Z,80.22
2023-01-18T03:15:45.110Z,79.90
2023-01-18T03:18:02.283Z,79.56
2023-01-18T03:20:18.961Z,79.75
2023-01-18T03:22:55.849Z,79.63
2023-01-18T03:25:10.245Z,79.84
2023-01-18T03:27:40.965Z,79.77
2023-01-18T03:30:11.628Z,79.65
2023-01-18T03:32:42.635Z,79.36
2023-01-18T03:34:57.104Z,79.59
2023-01-18T03:37:14.920Z,79.51
2023-01-18T03:39:51.809Z,79.66
2023-01-18T03:42:09.332Z,79.58
2023-01-18T03:44:36.371Z,79.54
2023-01-18T03:46:48.569Z,79.04
2023-01-18T03:49:00.980Z,79.45
2023-01-18T03:51:23.621Z,79.46
2023-01-18T03:53:42.886Z,79.77
2023-01-18T03:56:03.689Z,79.80
2023-01-18T03:58:21.961Z,79.38
2023-01-18T04:00:34.027Z,78.91
2023-01-18T04:02:48.211Z,79.72
2023-01-18T04:05:04.567Z,79.74
2023-01-18T04:07:16.970Z,79.71
2023-01-18T04:09:28.480Z,79.56
2023-01-18T04:11:40.561Z,79.94
2023-01-18T04:13:54.393Z,79.44
2023-01-18T04:16:06.936Z,79.71
2023-01-18T04:18:18.789Z,79.76
2023-01-18T04:20:30.993Z,79.92
2023-01-18T04:22:43.094Z,79.66
2023-01-18T04:24:54.671Z,79.68
2023-01-18T04:27:06.769Z,80.13
2023-01-18T04:29:18.555Z,79.83
2023-01-18T04:31:59.137Z,80.29
2023-01-18T04:34:13.983Z,80.07
2023-01-18T04:36:28.649Z,80.23
2023-01-18T04:38:40.531Z,80.56
2023-01-18T04:40:52.424Z,80.57
2023-01-18T04:43:04.727Z,80.56
2023-01-18T04:45:18.366Z,80.36
2023-01-18T04:47:30.477Z,80.46
2023-01-18T04:49:42.143Z,80.33
2023-01-18T04:51:54.347Z,80.34
2023-01-18T04:54:06.336Z,80.35
2023-01-18T04:56:18.337Z,80.46
2023-01-18T04:58:30.430Z,80.49
2023-01-18T05:00:42.465Z,80.63
2023-01-18T05:02:54.222Z,80.44
2023-01-18T05:05:06.619Z,80.32
2023-01-18T05:07:18.307Z,80.16
2023-01-18T05:09:30.508Z,79.98
2023-01-18T05:11:43.385Z,80.62
2023-01-18T05:13:56.149Z,80.26
2023-01-18T05:16:14.534Z,79.96
2023-01-18T05:18:26.575Z,79.38
2023-01-18T05:20:38.571Z,79.89
2023-01-18T05:22:50.357Z,79.96
2023-01-18T05:25:02.064Z,80.55
2023-01-18T05:27:15.251Z,79.79
2023-01-18T05:29:27.168Z,79.98
2023-01-18T05:31:39.389Z,79.58
2023-01-18T05:33:51.561Z,80.22
2023-01-18T05:36:04.272Z,80.15
2023-01-18T05:38:15.988Z,79.51
2023-01-18T05:40:28.269Z,79.61
2023-01-18T05:42:39.949Z,79.96
2023-01-18T05:44:51.746Z,79.50
2023-01-18T05:47:03.635Z,79.63
2023-01-18T05:49:15.624Z,79.70
2023-01-18T05:51:27.416Z,79.76
2023-01-18T05:53:40.025Z,79.51
2023-01-18T05:56:00.137Z,79.58
2023-01-18T05:58:12.066Z,79.53
2023-01-18T06:00:23.898Z,79.65
2023-01-18T06:02:35.741Z,79.54
2023-01-18T06:04:48.103Z,79.20
2023-01-18T06:06:59.979Z,79.29
2023-01-18T06:09:11.669Z,79.07
2023-01-18T06:11:23.591Z,79.35
2023-01-18T06:13:35.773Z,79.14
2023-01-18T06:15:49.676Z,79.01
2023-01-18T06:18:02.411Z,79.30
2023-01-18T06:20:14.922Z,78.97
2023-01-18T06:22:26.606Z,79.37
2023-01-18T06:24:39.585Z,78.99
2023-01-18T06:26:51.740Z,79.02
2023-01-18T06:29:03.718Z,79.34
2023-01-18T06:31:15.627Z,79.12
2023-01-18T06:33:27.507Z,79.39
2023-01-18T06:35:39.906Z,79.63
2023-01-18T06:37:52.620Z,79.75
2023-01-18T06:40:05.634Z,79.78
2023-01-18T06:42:17.735Z,79.85
2023-01-18T06:44:29.319Z,80.24
2023-01-18T06:46:43.874Z,79.92
2023-01-18T06:48:55.978Z,80.44
2023-01-18T06:51:08.171Z,80.33
2023-01-18T06:53:20.900Z,81.06
2023-01-18T06:55:34.766Z,81.02
2023-01-18T06:57:47.938Z,81.13
2023-01-18T07:00:02.091Z,81.29
2023-01-18T07:02:16.739Z,81.74
2023-01-18T07:04:28.737Z,81.82
2023-01-18T07:06:40.328Z,82.02
2023-01-18T07:08:52.219Z,82.25
2023-01-18T07:11:07.106Z,82.69
2023-01-18T07:13:20.509Z,82.56
2023-01-18T07:15:32.407Z,82.71
2023-01-18T07:17:45.314Z,82.70
2023-01-18T07:19:57.412Z,82.98
2023-01-18T07:22:09.460Z,83.01
2023-01-18T07:24:22.431Z,83.23
2023-01-18T07:26:34.113Z,82.68
2023-01-18T07:28:47.346Z,83.00
2023-01-18T07:31:02.709Z,82.91
2023-01-18T07:33:14.396Z,82.75
2023-01-18T07:35:27.727Z,83.09
2023-01-18T07:37:40.231Z,83.38
2023-01-18T07:39:52.543Z,83.26
2023-01-18T07:42:05.145Z,83.14
2023-01-18T07:44:18.925Z,83.52
2023-01-18T07:46:31.657Z,84.11
2023-01-18T07:48:45.233Z,84.00
2023-01-18T07:51:00.114Z,83.97
2023-01-18T07:53:12.021Z,83.94
2023-01-18T07:55:24.795Z,84.07
2023-01-18T07:57:36.301Z,83.98
2023-01-18T07:59:48.163Z,83.85
2023-01-18T08:01:59.973Z,84.43
2023-01-18T08:04:11.846Z,84.15
2023-01-18T08:06:26.094Z,84.13
2023-01-18T08:08:38.296Z,84.04
2023-01-18T08:10:55.000Z,84.19
2023-01-18T08:13:11.284Z,84.39
2023-01-18T08:15:23.188Z,84.69
2023-01-18T08:17:35.719Z,84.50
2023-01-18T08:19:47.248Z,84.21
2023-01-18T08:21:59.281Z,84.54
2023-01-18T08:24:11.472Z,84.60
2023-01-18T08:26:23.369Z,84.43
2023-01-18T08:28:35.566Z,85.85
2023-01-18T08:30:48.940Z,84.70
2023-01-18T08:33:02.745Z,84.42
2023-01-18T08:35:14.631Z,84.60
2023-01-18T08:37:26.632Z,84.47
2023-01-18T08:39:38.815Z,84.74
2023-01-18T08:41:50.501Z,84.40
2023-01-18T08:44:02.503Z,84.16
2023-01-18T08:46:15.764Z,84.50
2023-01-18T08:48:28.028Z,84.63
2023-01-18T08:50:39.911Z,84.74
2023-01-18T08:52:52.697Z,85.05
2023-01-18T08:55:05.418Z,84.91
2023-01-18T08:57:17.343Z,85.09
2023-01-18T08:59:29.051Z,84.50
2023-01-18T09:01:40.695Z,84.81
2023-01-18T09:03:57.694Z,84.79
2023-01-18T09:06:12.481Z,85.16
2023-01-18T09:08:24.883Z,85.23
2023-01-18T09:10:37.697Z,85.10
2023-01-18T09:12:51.104Z,84.84
2023-01-18T09:15:05.067Z,85.21
2023-01-18T09:17:19.315Z,85.13
2023-01-18T09:19:31.205Z,85.00
2023-01-18T09:21:45.248Z,84.88
2023-01-18T09:23:59.497Z,85.23
2023-01-18T09:26:17.089Z,85.31
2023-01-18T09:28:29.321Z,84.93
2023-01-18T09:30:41.111Z,85.10
2023-01-18T09:32:52.799Z,85.17
2023-01-18T09:35:06.285Z,85.02
2023-01-18T09:37:19.292Z,85.20
2023-01-18T09:39:40.207Z,85.28
2023-01-18T09:42:01.584Z,85.29
2023-01-18T09:44:29.636Z,85.20
2023-01-18T09:46:42.793Z,85.16
2023-01-18T09:48:57.463Z,85.41
2023-01-18T09:51:20.822Z,85.06
2023-01-18T09:53:55.096Z,85.60
2023-01-18T09:56:20.871Z,85.40
2023-01-18T09:58:57.893Z,85.29
2023-01-18T10:01:18.172Z,85.49
2023-01-18T10:03:59.161Z,85.48
2023-01-18T10:06:21.700Z,85.48
2023-01-18T10:08:36.253Z,85.41
2023-01-18T10:11:09.884Z,85.50
2023-01-18T10:13:34.382Z,85.41
2023-01-18T10:15:46.645Z,85.43
2023-01-18T10:18:00.771Z,85.01
2023-01-18T10:20:34.286Z,85.93
2023-01-18T10:22:52.889Z,85.40
2023-01-18T10:25:32.893Z,85.29
2023-01-18T10:28:08.242Z,85.29
2023-01-18T10:30:55.962Z,85.73
2023-01-18T10:33:18.710Z,85.27
2023-01-18T10:35:39.924Z,85.30
2023-01-18T10:37:55.298Z,85.34
2023-01-18T10:40:10.350Z,85.40
2023-01-18T10:42:48.061Z,85.26
2023-01-18T10:44:59.950Z,85.24
2023-01-18T10:47:12.155Z,85.43
2023-01-18T10:49:42.888Z,85.17
2023-01-18T10:51:54.983Z,85.24
2023-01-18T10:54:19.368Z,85.74
2023-01-18T10:56:31.282Z,85.62
2023-01-18T10:58:52.183Z,85.39
2023-01-18T11:01:04.741Z,85.43
2023-01-18T11:03:17.074Z,85.49
2023-01-18T11:05:31.936Z,85.82
2023-01-18T11:07:44.237Z,85.50
2023-01-18T11:10:01.711Z,85.49
2023-01-18T11:12:41.548Z,85.69
2023-01-18T11:14:53.501Z,85.78
2023-01-18T11:17:12.691Z,85.56
2023-01-18T11:19:26.548Z,85.45
2023-01-18T11:21:41.309Z,85.70
2023-01-18T11:23:55.345Z,85.52
2023-01-18T11:26:15.207Z,85.60
2023-01-18T11:28:39.657Z,85.55
2023-01-18T11:31:08.771Z,85.30
2023-01-18T11:33:23.795Z,85.46
2023-01-18T11:35:37.332Z,85.40
2023-01-18T11:37:48.999Z,85.45
2023-01-18T11:40:21.630Z,85.48
2023-01-18T11:42:37.865Z,84.96
2023-01-18T11:45:07.215Z,84.97
2023-01-18T11:47:32.027Z,84.79
2023-01-18T11:49:53.009Z,85.03
2023-01-18T11:52:36.260Z,84.71
2023-01-18T11:55:02.063Z,85.07
2023-01-18T11:57:14.432Z,84.86
2023-01-18T11:59:35.661Z,84.89
2023-01-18T12:02:05.854Z,84.86
2023-01-18T12:04:55.689Z,84.74
2023-01-18T12:07:33.080Z,84.66
2023-01-18T12:10:07.517Z,84.65
2023-01-18T12:12:53.613Z,84.56
2023-01-18T12:15:31.805Z,84.69
2023-01-18T12:18:22.298Z,84.87
2023-01-18T12:20:53.874Z,84.71
2023-01-18T12:23:27.270Z,84.68
2023-01-18T12:25:57.699Z,84.81
2023-01-18T12:28:20.971Z,84.83
2023-01-18T12:30:58.334Z,84.52
2023-01-18T12:33:20.590Z,84.87
2023-01-18T12:36:07.063Z,85.04
2023-01-18T12:38:23.357Z,84.84
2023-01-18T12:40:41.300Z,84.78
2023-01-18T12:43:02.198Z,84.92
2023-01-18T12:45:23.101Z,84.87
2023-01-18T12:47:49.432Z,85.02
2023-01-18T12:50:07.294Z,85.13
2023-01-18T12:52:22.538Z,84.96
2023-01-18T12:54:42.318Z,84.93
2023-01-18T12:56:57.245Z,84.92
2023-01-18T12:59:19.574Z,85.08
2023-01-18T13:01:39.266Z,85.34
2023-01-18T13:03:57.836Z,85.04
2023-01-18T13:06:10.550Z,85.32
2023-01-18T13:08:31.660Z,85.30
2023-01-18T13:10:44.879Z,85.20
2023-01-18T13:12:58.120Z,85.46
2023-01-18T13:15:35.598Z,85.66
2023-01-18T13:17:56.866Z,85.67
2023-01-18T13:20:09.730Z,85.39
2023-01-18T13:22:31.857Z,85.58
2023-01-18T13:25:11.932Z,85.51
2023-01-18T13:27:24.419Z,85.89
2023-01-18T13:29:37.127Z,85.53
2023-01-18T13:31:49.433Z,85.61
2023-01-18T13:34:01.835Z,85.65
2023-01-18T13:36:17.553Z,85.70
2023-01-18T13:38:41.096Z,85.53
2023-01-18T13:40:55.813Z,85.68
2023-01-18T13:43:29.955Z,85.64
2023-01-18T13:46:02.442Z,85.84
2023-01-18T13:49:03.061Z,85.44
2023-01-18T13:51:36.715Z,85.57
2023-01-18T13:53:50.301Z,85.40
2023-01-18T13:56:08.811Z,85.53
2023-01-18T13:58:29.873Z,85.54
2023-01-18T14:00:48.402Z,85.18
2023-01-18T14:03:16.895Z,85.56
2023-01-18T14:05:46.416Z,85.38
2023-01-18T14:08:01.893Z,85.31
2023-01-18T14:10:49.205Z,85.06
2023-01-18T14:13:03.643Z,85.16
2023-01-18T14:15:46.924Z,85.36
2023-01-18T14:17:59.472Z,85.20
2023-01-18T14:20:29.490Z,85.36
2023-01-18T14:23:17.682Z,85.03
2023-01-18T14:25:58.109Z,85.22
2023-01-18T14:29:07.133Z,85.09
2023-01-18T14:31:26.850Z,85.35
2023-01-18T14:33:42.612Z,85.47
2023-01-18T14:36:01.171Z,85.43
2023-01-18T14:38:18.872Z,85.36
2023-01-18T14:40:31.713Z,85.24
2023-01-18T14:43:01.122Z,85.16
2023-01-18T14:45:40.968Z,85.11
2023-01-18T14:47:55.191Z,85.12
2023-01-18T14:50:16.385Z,85.10
2023-01-18T14:52:32.386Z,85.13
2023-01-18T14:54:56.026Z,85.14
2023-01-18T14:57:14.545Z,85.05
2023-01-18T14:59:27.893Z,85.05
2023-01-18T15:01:40.637Z,84.95
2023-01-18T15:03:55.285Z,85.06
2023-01-18T15:06:16.063Z,84.87
2023-01-18T15:08:30.713Z,84.99
2023-01-18T15:10:44.278Z,84.85
2023-01-18T15:12:59.044Z,84.90
2023-01-18T15:15:22.404Z,84.89
2023-01-18T15:17:37.288Z,84.94
2023-01-18T15:19:57.267Z,85.05
2023-01-18T15:22:12.642Z,84.76
2023-01-18T15:24:29.448Z,84.88
2023-01-18T15:26:53.146Z,84.66
2023-01-18T15:29:09.384Z,84.75
2023-01-18T15:31:21.207Z,84.68
2023-01-18T15:33:35.343Z,84.59
2023-01-18T15:35:50.386Z,84.81
2023-01-18T15:38:05.174Z,85.12
2023-01-18T15:40:17.239Z,84.95
2023-01-18T15:42:36.975Z,85.08
2023-01-18T15:44:52.185Z,84.91
2023-01-18T15:47:15.760Z,84.99
2023-01-18T15:49:27.957Z,85.10
2023-01-18T15:51:56.641Z,84.97
2023-01-18T15:54:15.290Z,85.26
2023-01-18T15:56:32.862Z,84.97
2023-01-18T15:58:50.088Z,85.30
2023-01-18T16:01:13.923Z,85.31
2023-01-18T16:03:29.969Z,85.18
2023-01-18T16:05:41.888Z,85.27
2023-01-18T16:08:21.670Z,84.93
2023-01-18T16:10:34.038Z,85.09
2023-01-18T16:12:46.140Z,85.36
2023-01-18T16:14:58.027Z,85.18
2023-01-18T16:17:24.520Z,85.15
2023-01-18T16:19:41.986Z,85.37
2023-01-18T16:22:06.176Z,85.31
2023-01-18T16:24:30.856Z,85.25
2023-01-18T16:26:44.178Z,85.08
2023-01-18T16:29:06.834Z,84.97
2023-01-18T16:31:23.012Z,85.18
2023-01-18T16:33:35.325Z,85.01
2023-01-18T16:35:48.648Z,84.95
2023-01-18T16:38:04.095Z,84.70
2023-01-18T16:40:19.044Z,85.15
2023-01-18T16:42:38.588Z,84.72
2023-01-18T16:44:52.747Z,84.79
2023-01-18T16:47:05.311Z,85.07
2023-01-18T16:49:18.400Z,85.10
2023-01-18T16:51:32.000Z,85.24
2023-01-18T16:53:45.201Z,84.98
2023-01-18T16:55:58.149Z,85.08
2023-01-18T16:58:13.737Z,85.06
2023-01-18T17:00:34.091Z,84.90
2023-01-18T17:02:47.192Z,84.99
2023-01-18T17:04:59.823Z,85.10
2023-01-18T17:07:13.422Z,84.71
2023-01-18T17:09:32.370Z,85.28
2023-01-18T17:11:45.907Z,85.03
2023-01-18T17:14:01.324Z,85.10
2023-01-18T17:16:20.110Z,85.70
2023-01-18T17:18:32.053Z,89.76
2023-01-18T17:20:44.878Z,89.65
2023-01-18T17:22:58.307Z,86.92
2023-01-18T17:25:12.543Z,84.96
2023-01-18T17:27:25.490Z,84.51
2023-01-18T17:29:38.516Z,84.26
2023-01-18T17:31:53.222Z,84.15
2023-01-18T17:34:07.500Z,83.88
2023-01-18T17:36:20.975Z,83.79
2023-01-18T17:38:36.535Z,83.84
2023-01-18T17:40:49.306Z,83.89
2023-01-18T17:43:01.647Z,83.91
2023-01-18T17:45:16.671Z,83.79
2023-01-18T17:47:30.152Z,83.83
2023-01-18T17:49:42.034Z,84.01
2023-01-18T17:51:53.988Z,84.06
2023-01-18T17:54:13.152Z,84.21
2023-01-18T17:56:33.235Z,83.93
2023-01-18T17:58:47.839Z,84.16
2023-01-18T18:01:11.579Z,83.95
2023-01-18T18:03:23.764Z,84.00
2023-01-18T18:05:35.647Z,84.18
2023-01-18T18:07:49.795Z,84.37
2023-01-18T18:10:02.360Z,84.35
2023-01-18T18:12:14.190Z,84.45
2023-01-18T18:14:26.097Z,84.24
2023-01-18T18:16:49.389Z,84.37
2023-01-18T18:19:03.111Z,84.15
2023-01-18T18:21:47.829Z,84.21
2023-01-18T18:24:04.034Z,84.47
2023-01-18T18:26:16.854Z,84.30
2023-01-18T18:28:29.969Z,84.23
2023-01-18T18:30:41.658Z,84.33
2023-01-18T18:32:55.501Z,84.55
2023-01-18T18:35:23.219Z,84.44
2023-01-18T18:37:36.895Z,84.54
2023-01-18T18:39:49.499Z,84.67
2023-01-18T18:42:01.759Z,84.56
2023-01-18T18:44:14.622Z,84.52
2023-01-18T18:46:26.857Z,84.21
2023-01-18T18:48:39.120Z,84.61
2023-01-18T18:50:52.317Z,84.72
2023-01-18T18:53:03.968Z,84.48
2023-01-18T18:55:16.331Z,84.48
2023-01-18T18:57:29.561Z,84.42
2023-01-18T18:59:41.679Z,84.35
2023-01-18T19:01:55.800Z,84.70
2023-01-18T19:04:08.201Z,84.31
2023-01-18T19:06:23.343Z,84.27
2023-01-18T19:08:35.264Z,84.50
2023-01-18T19:10:51.316Z,84.34
2023-01-18T19:13:05.001Z,84.55
2023-01-18T19:15:17.306Z,84.31
2023-01-18T19:17:31.038Z,84.09
2023-01-18T19:19:47.319Z,84.39
2023-01-18T19:21:59.520Z,84.44
2023-01-18T19:24:11.310Z,84.42
2023-01-18T19:26:22.999Z,84.92
2023-01-18T19:28:36.431Z,84.61
2023-01-18T19:30:50.987Z,84.97
2023-01-18T19:33:03.649Z,84.61
2023-01-18T19:35:23.471Z,84.81
2023-01-18T19:37:38.843Z,84.55
2023-01-18T19:39:50.636Z,84.33
2023-01-18T19:42:02.942Z,84.70
2023-01-18T19:44:14.622Z,84.74
2023-01-18T19:46:26.603Z,84.69
2023-01-18T19:48:40.618Z,84.30
2023-01-18T19:50:54.089Z,84.47
2023-01-18T19:53:06.801Z,84.45
2023-01-18T19:56:06.450Z,84.72
2023-01-18T19:58:47.908Z,84.86
2023-01-18T20:01:00.296Z,84.59
2023-01-18T20:03:13.696Z,84.96
2023-01-18T20:05:28.506Z,84.93
2023-01-18T20:07:41.392Z,85.07
2023-01-18T20:09:53.236Z,84.77
2023-01-18T20:12:05.604Z,84.65
2023-01-18T20:14:18.565Z,84.40
2023-01-18T20:16:31.124Z,84.86
2023-01-18T20:18:43.236Z,84.63
2023-01-18T20:20:56.962Z,84.44
2023-01-18T20:23:11.717Z,84.82
2023-01-18T20:25:25.760Z,84.59
2023-01-18T20:27:37.958Z,84.63
2023-01-18T20:29:51.191Z,84.52
2023-01-18T20:32:15.152Z,84.18
2023-01-18T20:34:27.971Z,84.55
2023-01-18T20:36:40.888Z,84.79
2023-01-18T20:38:52.677Z,84.55
2023-01-18T20:41:06.265Z,84.74
2023-01-18T20:43:18.651Z,84.81
2023-01-18T20:45:31.399Z,84.71
2023-01-18T20:47:44.956Z,84.65
2023-01-18T20:49:56.849Z,84.48
2023-01-18T20:52:11.404Z,84.73
2023-01-18T20:54:22.934Z,84.47
2023-01-18T20:56:34.676Z,84.36
2023-01-18T20:58:47.217Z,84.45
2023-01-18T21:01:07.644Z,84.13
2023-01-18T21:03:19.776Z,84.17
2023-01-18T21:05:31.360Z,84.44
2023-01-18T21:07:43.357Z,83.98
2023-01-18T21:09:56.274Z,83.95
2023-01-18T21:12:08.264Z,84.25
2023-01-18T21:14:23.418Z,84.19
2023-01-18T21:16:48.281Z,84.18
2023-01-18T21:19:00.838Z,84.31
2023-01-18T21:21:13.291Z,84.28
2023-01-18T21:23:26.359Z,84.44
2023-01-18T21:25:38.361Z,84.33
2023-01-18T21:27:53.620Z,84.04
2023-01-18T21:30:06.965Z,84.11
2023-01-18T21:32:53.760Z,84.02
2023-01-18T21:35:06.171Z,84.53
2023-01-18T21:37:17.960Z,84.62
2023-01-18T21:39:40.459Z,84.27
2023-01-18T21:43:01.936Z,84.01
2023-01-18T21:45:35.294Z,84.39
2023-01-18T21:48:15.099Z,84.37
2023-01-18T21:50:47.400Z,84.23
2023-01-18T21:53:19.688Z,84.29
2023-01-18T21:55:31.833Z,84.38
2023-01-18T21:57:44.006Z,84.74
2023-01-18T21:59:55.593Z,84.45
2023-01-18T22:02:09.966Z,84.47
2023-01-18T22:04:40.618Z,84.51
2023-01-18T22:06:54.374Z,84.70
2023-01-18T22:09:20.669Z,84.69
2023-01-18T22:11:33.253Z,84.73
2023-01-18T22:13:45.446Z,84.68
2023-01-18T22:16:02.706Z,84.78
2023-01-18T22:18:14.456Z,84.42
2023-01-18T22:20:26.552Z,84.67
2023-01-18T22:22:38.418Z,84.41
2023-01-18T22:24:50.136Z,84.69
2023-01-18T22:27:01.718Z,84.54
2023-01-18T22:29:13.852Z,85.02
2023-01-18T22:31:26.122Z,84.93
2023-01-18T22:33:37.904Z,84.74
2023-01-18T22:35:49.538Z,84.57
2023-01-18T22:38:01.806Z,84.63
2023-01-18T22:40:14.207Z,84.85
2023-01-18T22:42:26.192Z,85.01
2023-01-18T22:44:37.986Z,84.96
2023-01-18T22:46:50.078Z,84.93
2023-01-18T22:49:01.668Z,84.85
2023-01-18T22:51:16.718Z,84.90
2023-01-18T22:53:31.697Z,84.76
2023-01-18T22:55:43.384Z,85.07
2023-01-18T22:57:55.276Z,85.04
2023-01-18T23:00:07.990Z,85.09
2023-01-18T23:02:19.981Z,84.98
2023-01-18T23:04:34.133Z,84.96
2023-01-18T23:06:48.005Z,84.59
2023-01-18T23:09:00.368Z,84.45
2023-01-18T23:11:21.989Z,84.45
2023-01-18T23:13:33.780Z,84.48
2023-01-18T23:16:04.621Z,84.80
2023-01-18T23:18:16.711Z,84.69
2023-01-18T23:20:28.919Z,84.44
2023-01-18T23:22:41.316Z,84.29
2023-01-18T23:24:53.104Z,85.00
2023-01-18T23:27:07.150Z,84.68
2023-01-18T23:29:19.087Z,84.52
2023-01-18T23:31:30.875Z,84.40
2023-01-18T23:33:45.691Z,84.89
2023-01-18T23:35:57.792Z,84.86
2023-01-18T23:38:09.479Z,84.57
2023-01-18T23:40:40.010Z,84.78
2023-01-18T23:43:13.710Z,84.83
2023-01-18T23:45:44.550Z,85.17
2023-01-18T23:48:15.282Z,85.09
2023-01-18T23:50:46.033Z,84.85
2023-01-18T23:53:20.706Z,84.95
2023-01-18T23:55:32.744Z,84.90
2023-01-18T23:57:44.834Z,85.45
2023-01-18T23:59:58.945Z,84.94
